Flight Track Log - Related Links

Times and Time Zones

All times are in EDT time to prevent confusion due to time zone crossing. See the CTA104 flight status page for this flight to view local times or setup timezone preferences in your user account.

Time Position Orientation Groundspeed Altitude Reporting Facility
EDT Latitude Longitude Course Direction KTS MPH feet Rate Location/Type
Wed 08:39:24 PM 35.4394 -108.6683 104° East 151 174 11,800  Level Albuquerque Center
Wed 08:40:25 PM 35.4297 -108.6203 104° East 150 173 12,100 732 Climbing Albuquerque Center
Wed 08:41:27 PM 35.4153 -108.5592 106° East 160 184 13,300 919 Climbing Albuquerque Center
Wed 08:42:29 PM 35.4061 -108.5103 103° East 158 182 14,000 683 Climbing Albuquerque Center
Wed 08:43:30 PM 35.3944 -108.4575 105° East 161 185 14,700 634 Climbing Albuquerque Center
Wed 08:44:32 PM 35.3817 -108.3917 103° East 170 196 15,300 293 Climbing Albuquerque Center
Wed 08:45:33 PM 35.3711 -108.3297 102° East 181 208 15,300  Level Albuquerque Center
Wed 08:46:35 PM 35.3575 -108.2550 103° East 193 222 15,300  Level Albuquerque Center
Wed 08:47:36 PM 35.3433 -108.1908 105° East 199 229 15,300  Level Albuquerque Center
Wed 08:48:38 PM 35.3250 -108.1164 107° East 204 235 15,300  Level Albuquerque Center
Wed 08:49:39 PM 35.3081 -108.0558 109° East 199 229 15,300  Level Albuquerque Center
Wed 08:50:41 PM 35.2936 -107.9950 106° East 195 224 15,300  Level Albuquerque Center
Wed 08:51:42 PM 35.2719 -107.9203 110° East 205 236 15,300  Level Albuquerque Center
Wed 08:52:43 PM 35.2556 -107.8553 107° East 208 239 15,300 -98 Level Albuquerque Center
Wed 08:53:45 PM 35.2439 -107.7775 100° East 208 239 15,100 -98 Descending Albuquerque Center
Wed 08:54:46 PM 35.2333 -107.7092 101° East 212 244 15,100  Level Albuquerque Center
Wed 08:55:48 PM 35.2214 -107.6408 102° East 213 245 15,100 -146 Level Albuquerque Center
Wed 08:56:49 PM 35.2067 -107.5631 103° East 212 244 14,800 -439 Descending Albuquerque Center
Wed 08:57:51 PM 35.1931 -107.4903 103° East 221 254 14,200 -634 Descending Albuquerque Center
Wed 08:58:52 PM 35.1794 -107.4128 102° East 230 265 13,500 -689 Descending Albuquerque Center
Wed 08:59:53 PM 35.1642 -107.3389 104° East 228 262 12,800 -674 Descending Albuquerque Center
Wed 09:00:21 PM 35.1539 -107.2956 106° East 219 252 12,500 -677 Descending Albuquerque Center
Wed 09:00:55 PM 35.1481 -107.2678 104° East 219 252 12,100 -758 Descending Albuquerque Center
Wed 09:01:56 PM 35.1314 -107.1944 106° East 223 257 11,300 -682 Descending Albuquerque Center
Wed 09:02:23 PM 35.1225 -107.1481 103° East 227 261 11,100 -295 Descending Albuquerque Center
Wed 09:02:57 PM 35.1203 -107.1186 95° East 224 258 11,000 -111 Descending Albuquerque Center
Wed 09:03:17 PM 35.1181 -107.0842 94° East 203 234 11,000 -387 Level Albuquerque Center
Wed 09:03:59 PM 35.1175 -107.0497 91° East 207 238 10,600 -583 Descending Albuquerque Center
Wed 09:05:00 PM 35.1142 -106.9631 93° East 210 242 10,000 -293 Descending Albuquerque Center
Wed 09:06:02 PM 35.1172 -106.8931 87° East 209 241 10,000 50 Level Albuquerque Center
Wed 09:07:01 PM 35.1228 -106.8261 84° East 198 228 10,100  Climbing Albuquerque Center
Wed 09:08:02 PM 35.1278 -106.7572 85° East 207 238 10,000 -246 Descending Albuquerque Center
Wed 09:09:03 PM 35.1289 -106.6894 89° East 208 239 9,600 -768 Descending Albuquerque Center
Wed 09:10:07 PM 35.1169 -106.6192 102° East 201 231 8,400 -1,008 Descending Albuquerque Center
Wed 09:11:08 PM 35.0867 -106.5794 133° Southeast 181 208 7,500 -1,169 Descending Albuquerque Center
Wed 09:12:05 PM 35.0542 -106.5919 197° South 119 137 6,100 -1,122 Descending Albuquerque Center
Wed 09:13:11 PM 35.0333 -106.6167 224° Southwest 133 153 5,200 -818 Descending Albuquerque Center

Login

Don't have an account? Register now (free) for customized features, flight alerts, and more!